Time;durP1;ratioP1;P1;durP2;ratioP2;P2;SDS_P1;SDS_P2;PMS_P1;PMS_P2;Temp;Humidity;BMP_temperature;BMP_pressure;BME280_temperature;BME280_humidity;BME280_pressure;Samples;Min_cycle;Max_cycle;Signal;HPM_P1;HPM_P2
2022/08/25 00:02:02;;;;;;;0.55;0.55;;;14.40;92.00;;;;;;4898166;29;20032;-79
2022/08/25 00:04:29;;;;;;;1.10;0.60;;;14.40;91.70;;;;;;4897607;29;20047;-78
2022/08/25 00:06:57;;;;;;;1.55;0.68;;;14.50;91.80;;;;;;4897675;29;20025;-73
2022/08/25 00:09:26;;;;;;;1.52;0.60;;;14.60;92.00;;;;;;4897521;29;20029;-66
2022/08/25 00:11:54;;;;;;;1.10;0.52;;;14.70;92.00;;;;;;4897870;29;20553;-76
2022/08/25 00:14:26;;;;;;;0.77;0.63;;;14.80;91.70;;;;;;4897243;29;20056;-71
2022/08/25 00:16:53;;;;;;;2.80;0.75;;;15.00;91.60;;;;;;4897162;29;20385;-71
2022/08/25 00:19:25;;;;;;;2.20;0.60;;;15.10;91.20;;;;;;4896219;29;20040;-70
2022/08/25 00:21:53;;;;;;;1.45;0.60;;;15.20;91.00;;;;;;4902604;29;20028;-68
2022/08/25 00:24:21;;;;;;;3.55;1.40;;;15.40;91.30;;;;;;4898224;29;20435;-68
2022/08/25 00:26:53;;;;;;;1.50;0.60;;;15.50;91.30;;;;;;4897084;29;20381;-69
2022/08/25 00:29:23;;;;;;;1.73;0.77;;;15.80;90.90;;;;;;4896224;29;20651;-69
2022/08/25 00:31:52;;;;;;;2.40;0.60;;;15.90;90.50;;;;;;4910183;29;20045;-69
2022/08/25 00:34:25;;;;;;;2.95;0.80;;;16.10;90.50;;;;;;4896446;29;20031;-69
2022/08/25 00:36:54;;;;;;;3.15;0.73;;;16.20;90.30;;;;;;4895616;29;20053;-67
2022/08/25 00:39:23;;;;;;;1.50;0.47;;;16.40;90.20;;;;;;4890656;29;20035;-69
2022/08/25 00:41:54;;;;;;;0.52;0.50;;;16.50;89.80;;;;;;4896613;29;20032;-73
2022/08/25 00:44:22;;;;;;;0.95;0.50;;;16.60;89.40;;;;;;4896194;29;20363;-69
2022/08/25 00:46:52;;;;;;;1.02;0.60;;;16.60;88.90;;;;;;4897279;29;20108;-68
2022/08/25 00:49:47;;;;;;;0.68;0.43;;;16.70;88.40;;;;;;4897310;29;20466;-68
2022/08/25 00:52:28;;;;;;;0.77;0.70;;;16.90;88.70;;;;;;4897432;29;20490;-70
2022/08/25 00:55:05;;;;;;;0.73;0.60;;;17.10;87.20;;;;;;4897401;29;20024;-69
2022/08/25 00:57:43;;;;;;;1.52;0.40;;;17.20;86.80;;;;;;4889435;29;20294;-72
2022/08/25 01:00:20;;;;;;;0.70;0.40;;;17.40;86.10;;;;;;4889350;29;20044;-77
2022/08/25 01:02:59;;;;;;;2.03;0.50;;;17.50;86.00;;;;;;4896853;29;20373;-83
2022/08/25 01:05:34;;;;;;;0.60;0.40;;;17.60;85.30;;;;;;4893564;29;20056;-78
2022/08/25 01:08:08;;;;;;;0.65;0.50;;;17.80;85.30;;;;;;4895943;29;20076;-70
2022/08/25 01:10:52;;;;;;;0.73;0.40;;;17.90;85.00;;;;;;4894782;29;20036;-79
2022/08/25 01:13:23;;;;;;;2.22;0.60;;;18.00;83.80;;;;;;4891259;29;20430;-73
2022/08/25 01:16:07;;;;;;;0.40;0.40;;;18.10;84.10;;;;;;4896047;29;20025;-71
2022/08/25 01:18:56;;;;;;;0.40;0.40;;;18.30;83.70;;;;;;4889926;29;20039;-84
2022/08/25 01:21:26;;;;;;;0.68;0.50;;;18.40;83.40;;;;;;4896129;29;20103;-86
2022/08/25 01:23:57;;;;;;;0.43;0.30;;;18.60;82.90;;;;;;4881782;29;20401;-83
2022/08/25 01:26:28;;;;;;;1.50;0.65;;;18.70;81.00;;;;;;4895527;29;20746;-76
2022/08/25 01:31:42;;;;;;;0.50;0.32;;;18.90;80.90;;;;;;4896522;29;20501;-68
2022/08/25 01:34:11;;;;;;;0.73;0.50;;;19.00;80.50;;;;;;4895597;29;20466;-80
2022/08/25 01:36:40;;;;;;;2.10;0.52;;;19.10;79.80;;;;;;4895582;29;20032;-68
2022/08/25 01:39:11;;;;;;;1.65;0.52;;;19.20;79.60;;;;;;4895966;29;20120;-86
2022/08/25 01:41:41;;;;;;;1.50;0.40;;;19.10;78.90;;;;;;4895446;29;20393;-70
2022/08/25 01:44:09;;;;;;;1.05;0.47;;;19.20;78.90;;;;;;4893456;29;20083;-84
2022/08/25 01:46:37;;;;;;;1.58;0.50;;;19.20;78.60;;;;;;4894408;29;20040;-68
2022/08/25 01:49:04;;;;;;;0.30;0.30;;;19.20;78.70;;;;;;4893761;29;20128;-80
2022/08/25 01:51:42;;;;;;;1.95;0.43;;;19.10;78.90;;;;;;4895307;29;20029;-75
2022/08/25 01:54:09;;;;;;;1.98;1.27;;;19.00;78.20;;;;;;4894108;29;20021;-80
2022/08/25 01:56:37;;;;;;;1.60;0.73;;;19.00;78.60;;;;;;4896768;29;20067;-79
2022/08/25 01:59:04;;;;;;;2.10;0.82;;;18.90;78.40;;;;;;4895655;29;20080;-72
2022/08/25 02:01:32;;;;;;;0.77;0.50;;;18.80;78.30;;;;;;4895957;29;20031;-70
2022/08/25 02:03:59;;;;;;;1.10;0.60;;;18.60;78.20;;;;;;4894758;29;20040;-72
2022/08/25 02:06:33;;;;;;;3.10;0.80;;;18.40;79.10;;;;;;4894794;29;20112;-79
2022/08/25 02:09:17;;;;;;;2.50;0.82;;;18.10;79.70;;;;;;4894624;29;20104;-82
2022/08/25 02:11:46;;;;;;;3.30;0.73;;;17.90;80.30;;;;;;4895390;29;20594;-79
2022/08/25 02:14:16;;;;;;;1.88;1.00;;;17.80;80.80;;;;;;4895326;29;20036;-71
2022/08/25 02:16:50;;;;;;;2.83;1.55;;;17.70;81.40;;;;;;4895099;29;20080;-72
2022/08/25 02:19:19;;;;;;;1.65;0.80;;;17.50;81.50;;;;;;4896374;29;20394;-78
2022/08/25 02:21:46;;;;;;;3.10;1.00;;;17.50;81.50;;;;;;4900036;29;20112;-81
2022/08/25 02:24:14;;;;;;;2.22;0.90;;;17.40;82.50;;;;;;4899634;29;20059;-84
2022/08/25 02:26:42;;;;;;;2.90;0.55;;;17.40;83.00;;;;;;4899758;29;20028;-67
2022/08/25 02:29:09;;;;;;;1.48;0.70;;;17.40;83.40;;;;;;4895695;29;20025;-68
2022/08/25 02:31:38;;;;;;;0.85;0.40;;;17.30;83.90;;;;;;4900026;29;20021;-70
2022/08/25 02:34:07;;;;;;;2.08;1.02;;;17.40;84.50;;;;;;4900027;29;20075;-67
2022/08/25 02:36:36;;;;;;;2.75;0.68;;;17.50;85.20;;;;;;4899897;29;20052;-69
2022/08/25 02:39:05;;;;;;;0.38;0.30;;;17.70;85.40;;;;;;4899204;29;20126;-72
2022/08/25 02:41:33;;;;;;;1.05;0.40;;;17.90;84.10;;;;;;4899216;29;20027;-68
2022/08/25 02:44:02;;;;;;;2.25;0.50;;;18.30;84.20;;;;;;4898686;29;20037;-73
2022/08/25 02:46:30;;;;;;;0.40;0.40;;;18.60;82.30;;;;;;4898043;29;20028;-69
2022/08/25 02:48:57;;;;;;;2.15;0.50;;;18.80;81.70;;;;;;4898180;29;20024;-67
2022/08/25 02:51:28;;;;;;;1.27;0.55;;;19.00;80.80;;;;;;4906351;29;20032;-68
2022/08/25 02:53:57;;;;;;;0.45;0.40;;;19.10;80.70;;;;;;4899973;29;20434;-67
2022/08/25 02:56:25;;;;;;;0.40;0.40;;;19.00;80.10;;;;;;4899531;29;20545;-70
2022/08/25 02:58:53;;;;;;;0.98;0.55;;;18.90;80.80;;;;;;4899083;29;20072;-72
2022/08/25 03:01:20;;;;;;;0.90;0.30;;;18.70;80.70;;;;;;4899369;29;20461;-70
2022/08/25 03:03:49;;;;;;;0.63;0.47;;;18.50;81.30;;;;;;4899577;29;20048;-67
2022/08/25 03:06:21;;;;;;;0.82;0.40;;;18.30;81.30;;;;;;4899464;29;20410;-68
2022/08/25 03:08:49;;;;;;;0.75;0.40;;;18.10;81.70;;;;;;4899730;29;20036;-67
2022/08/25 03:11:16;;;;;;;0.73;0.32;;;18.00;81.50;;;;;;4899904;29;20120;-68
2022/08/25 03:13:44;;;;;;;0.75;0.50;;;17.80;82.80;;;;;;4899417;29;20032;-67
2022/08/25 03:16:11;;;;;;;2.00;0.60;;;17.70;83.60;;;;;;4899404;29;20021;-73
2022/08/25 03:18:41;;;;;;;1.27;0.47;;;17.50;82.30;;;;;;4899470;29;20048;-68
2022/08/25 03:21:10;;;;;;;1.17;0.50;;;17.40;82.70;;;;;;4899639;29;20107;-71
2022/08/25 03:23:38;;;;;;;1.33;0.60;;;17.30;83.10;;;;;;4899465;29;20037;-72
2022/08/25 03:28:51;;;;;;;1.52;0.98;;;17.10;84.00;;;;;;4899414;29;20040;-71
2022/08/25 03:31:18;;;;;;;2.35;0.95;;;17.00;82.80;;;;;;4898707;29;20028;-68
2022/08/25 03:33:45;;;;;;;2.97;1.00;;;16.90;82.20;;;;;;4899095;29;20020;-67
2022/08/25 03:36:13;;;;;;;1.40;0.70;;;16.80;81.90;;;;;;4899650;29;20367;-67
2022/08/25 03:38:41;;;;;;;2.15;0.50;;;16.80;81.50;;;;;;4899241;29;20033;-67
2022/08/25 03:41:18;;;;;;;2.70;0.95;;;16.80;81.70;;;;;;4899134;29;20028;-68
2022/08/25 03:43:46;;;;;;;3.25;0.80;;;16.70;82.00;;;;;;4899048;29;20138;-67
2022/08/25 03:46:21;;;;;;;1.55;0.75;;;16.70;81.90;;;;;;4899003;29;20039;-67
2022/08/25 03:48:48;;;;;;;1.40;0.70;;;16.70;82.20;;;;;;4898827;29;20478;-67
2022/08/25 03:51:49;;;;;;;1.73;0.60;;;16.80;83.00;;;;;;4898966;29;20024;-70
2022/08/25 03:54:22;;;;;;;2.67;0.65;;;16.90;83.50;;;;;;4894810;29;20048;-67
2022/08/25 03:56:49;;;;;;;2.38;0.77;;;17.00;84.00;;;;;;4898523;29;20394;-68
2022/08/25 03:59:17;;;;;;;2.50;0.47;;;17.00;82.80;;;;;;4898455;29;20044;-68
2022/08/25 04:01:45;;;;;;;1.60;0.40;;;17.10;83.10;;;;;;4898696;29;20037;-67
2022/08/25 04:04:15;;;;;;;2.65;0.45;;;17.10;82.90;;;;;;4898804;29;20021;-67
2022/08/25 04:06:44;;;;;;;2.13;0.80;;;17.20;83.00;;;;;;4898447;29;20037;-72
2022/08/25 04:09:12;;;;;;;2.60;0.70;;;17.20;83.30;;;;;;4898521;29;20024;-72
2022/08/25 04:11:39;;;;;;;2.55;0.60;;;17.30;83.70;;;;;;4898774;29;20027;-71
2022/08/25 04:14:07;;;;;;;2.30;0.75;;;17.30;84.10;;;;;;4898653;29;20036;-73
2022/08/25 04:16:35;;;;;;;3.90;0.82;;;17.30;84.30;;;;;;4898726;29;20028;-74
2022/08/25 04:19:08;;;;;;;2.00;0.60;;;17.30;84.60;;;;;;4898388;29;20040;-73
2022/08/25 04:21:36;;;;;;;1.02;0.60;;;17.30;85.10;;;;;;4898709;29;20029;-69
2022/08/25 04:24:04;;;;;;;3.35;0.73;;;17.20;85.50;;;;;;4898616;29;20115;-70
2022/08/25 04:26:38;;;;;;;4.13;1.00;;;17.10;85.50;;;;;;4912939;29;20043;-67
2022/08/25 04:29:08;;;;;;;4.18;0.50;;;17.00;85.60;;;;;;4898322;29;20063;-71
2022/08/25 04:31:39;;;;;;;1.70;0.50;;;17.00;85.40;;;;;;4897954;29;20076;-67
2022/08/25 04:34:08;;;;;;;1.42;0.82;;;17.00;85.70;;;;;;4898205;29;20035;-66
2022/08/25 04:36:35;;;;;;;2.85;0.70;;;16.90;85.90;;;;;;4898190;29;20036;-74
2022/08/25 04:39:03;;;;;;;2.95;0.63;;;16.90;86.40;;;;;;4898077;29;20029;-72
2022/08/25 04:41:30;;;;;;;2.50;0.55;;;16.80;86.60;;;;;;4897881;29;20032;-71
2022/08/25 04:44:00;;;;;;;3.72;0.70;;;16.80;86.00;;;;;;4897811;29;20027;-70
2022/08/25 04:46:30;;;;;;;4.47;0.60;;;16.70;85.50;;;;;;4898249;29;20025;-67
2022/08/25 04:48:59;;;;;;;1.83;0.70;;;16.70;85.90;;;;;;4897918;29;20120;-67
2022/08/25 04:51:29;;;;;;;2.30;0.60;;;16.70;86.10;;;;;;4898056;29;20441;-66
2022/08/25 04:54:00;;;;;;;1.48;0.60;;;16.60;86.30;;;;;;4897775;29;20036;-67
2022/08/25 04:56:28;;;;;;;3.03;0.70;;;16.60;86.80;;;;;;4897532;29;20036;-70
2022/08/25 04:58:56;;;;;;;5.88;0.70;;;16.60;87.20;;;;;;4897207;29;20406;-72
2022/08/25 05:01:26;;;;;;;3.70;0.70;;;16.50;85.70;;;;;;4896658;29;20067;-66
2022/08/25 05:03:58;;;;;;;0.85;0.65;;;16.50;85.80;;;;;;4897441;29;20036;-70
2022/08/25 05:06:26;;;;;;;1.35;0.65;;;16.50;86.10;;;;;;4897751;29;20020;-67
2022/08/25 05:08:54;;;;;;;3.08;1.23;;;16.40;86.40;;;;;;4897517;29;20056;-66
2022/08/25 05:11:23;;;;;;;2.38;0.70;;;16.40;86.80;;;;;;4896871;29;20025;-67
2022/08/25 05:13:52;;;;;;;3.00;0.60;;;16.40;86.80;;;;;;4897059;29;20033;-66
2022/08/25 05:16:22;;;;;;;2.88;0.70;;;16.30;86.80;;;;;;4897392;29;20028;-66
2022/08/25 05:18:50;;;;;;;0.85;0.60;;;16.30;87.20;;;;;;4896831;29;20032;-72
2022/08/25 05:21:24;;;;;;;1.45;1.02;;;16.30;86.90;;;;;;4896719;29;20047;-65
2022/08/25 05:23:56;;;;;;;5.32;1.33;;;16.40;87.30;;;;;;4895817;29;20127;-67
2022/08/25 05:26:26;;;;;;;3.38;1.92;;;16.40;88.60;;;;;;4896575;29;20056;-68
2022/08/25 05:28:54;;;;;;;2.10;0.80;;;16.40;88.70;;;;;;4897232;29;20032;-67
2022/08/25 05:31:23;;;;;;;1.30;0.60;;;16.30;88.30;;;;;;4897122;29;20438;-67
2022/08/25 05:33:52;;;;;;;3.13;0.70;;;16.30;88.30;;;;;;4897233;29;20029;-68
2022/08/25 05:36:23;;;;;;;3.20;0.68;;;16.30;88.70;;;;;;4897092;29;20465;-71
2022/08/25 05:38:50;;;;;;;2.60;0.70;;;16.20;89.30;;;;;;4897064;29;20029;-69
2022/08/25 05:41:21;;;;;;;0.95;0.63;;;16.20;89.60;;;;;;4896929;29;20036;-68
2022/08/25 05:43:51;;;;;;;2.63;0.80;;;16.20;90.00;;;;;;4894493;29;20115;-68
2022/08/25 05:46:20;;;;;;;1.52;0.70;;;16.10;90.10;;;;;;4894735;29;20032;-70
2022/08/25 05:48:48;;;;;;;2.22;0.70;;;16.20;90.30;;;;;;4896644;29;20032;-67
2022/08/25 05:51:17;;;;;;;7.13;1.88;;;16.10;90.60;;;;;;4896697;29;20060;-71
2022/08/25 05:53:47;;;;;;;7.85;1.83;;;16.20;90.90;;;;;;4896318;29;20021;-67
2022/08/25 05:56:15;;;;;;;4.60;1.10;;;16.10;91.30;;;;;;4896470;29;20092;-68
2022/08/25 05:58:43;;;;;;;1.70;0.70;;;16.10;91.30;;;;;;4896451;29;20490;-66
2022/08/25 06:04:05;;;;;;;3.00;0.88;;;16.10;91.80;;;;;;4896573;29;20051;-66
2022/08/25 06:06:32;;;;;;;3.33;0.70;;;16.10;91.90;;;;;;4896084;29;20393;-71
2022/08/25 06:09:01;;;;;;;4.25;0.77;;;16.20;92.10;;;;;;4896240;29;20462;-67
2022/08/25 06:11:29;;;;;;;3.13;1.05;;;16.10;92.20;;;;;;4895835;29;20035;-69
2022/08/25 06:13:56;;;;;;;2.58;0.85;;;16.20;92.20;;;;;;4895952;29;20032;-70
2022/08/25 06:16:24;;;;;;;4.40;1.35;;;16.10;92.20;;;;;;4896459;29;20029;-68
2022/08/25 06:18:51;;;;;;;2.60;0.88;;;16.20;92.40;;;;;;4895871;29;20492;-71
2022/08/25 06:21:18;;;;;;;2.15;0.90;;;16.10;92.20;;;;;;4894371;29;20075;-75
2022/08/25 06:23:47;;;;;;;2.22;1.02;;;16.20;92.20;;;;;;4895743;29;20025;-74
2022/08/25 06:26:14;;;;;;;4.93;0.90;;;16.20;92.30;;;;;;4895821;29;20425;-74
2022/08/25 06:28:42;;;;;;;3.08;1.02;;;16.20;92.40;;;;;;4896441;29;20074;-73
2022/08/25 06:31:09;;;;;;;3.97;0.90;;;16.30;92.50;;;;;;4896263;29;20036;-68
2022/08/25 06:33:36;;;;;;;5.43;1.30;;;16.50;92.10;;;;;;4896198;29;20418;-76
2022/08/25 06:36:06;;;;;;;5.13;2.00;;;16.50;92.10;;;;;;4896348;29;20032;-69
2022/08/25 06:38:33;;;;;;;6.13;1.27;;;16.50;91.80;;;;;;4896393;29;20123;-71
2022/08/25 06:41:06;;;;;;;5.78;1.10;;;16.40;92.00;;;;;;4896518;29;20024;-71
2022/08/25 06:43:36;;;;;;;4.32;0.80;;;16.40;91.80;;;;;;4896451;29;20474;-67
2022/08/25 06:46:18;;;;;;;1.75;1.00;;;16.30;92.00;;;;;;4895057;29;20040;-69
2022/08/25 06:48:45;;;;;;;;;;;16.30;92.00;;;;;;4896783;29;20024;-66
2022/08/25 06:51:15;;;;;;;5.05;1.05;;;16.30;92.00;;;;;;4895710;29;19908;-73
2022/08/25 06:53:45;;;;;;;2.22;1.00;;;16.30;92.00;;;;;;4895716;29;20032;-71
2022/08/25 06:56:13;;;;;;;4.03;0.90;;;16.30;92.00;;;;;;4895924;29;20017;-73
2022/08/25 06:58:41;;;;;;;4.65;0.85;;;16.20;92.20;;;;;;4895992;29;20173;-72
2022/08/25 07:01:22;;;;;;;9.40;2.83;;;16.20;92.10;;;;;;4895491;29;20043;-73
2022/08/25 07:03:50;;;;;;;3.75;1.10;;;16.20;92.20;;;;;;4895576;29;20063;-67
2022/08/25 07:06:18;;;;;;;4.97;1.50;;;16.20;92.10;;;;;;4896317;29;20029;-69
2022/08/25 07:08:46;;;;;;;1.15;0.82;;;16.20;92.10;;;;;;4899344;29;20029;-68
2022/08/25 07:11:15;;;;;;;2.95;1.38;;;16.10;91.90;;;;;;4898595;29;20037;-65
2022/08/25 07:13:45;;;;;;;4.40;1.10;;;16.10;91.90;;;;;;4898863;29;20043;-69
2022/08/25 07:16:14;;;;;;;4.22;1.30;;;15.90;91.90;;;;;;4898005;29;20031;-68
2022/08/25 07:18:41;;;;;;;2.78;2.00;;;15.90;92.00;;;;;;4898903;29;20028;-66
2022/08/25 07:21:08;;;;;;;5.18;2.10;;;15.70;92.30;;;;;;4899061;29;20039;-67
2022/08/25 07:23:36;;;;;;;3.45;1.30;;;15.60;92.40;;;;;;4899122;29;20031;-66
2022/08/25 07:26:16;;;;;;;2.47;1.13;;;15.60;92.60;;;;;;4898558;29;20389;-66
2022/08/25 07:28:47;;;;;;;2.95;1.42;;;15.50;92.70;;;;;;4898590;29;20363;-67
2022/08/25 07:31:15;;;;;;;4.20;1.92;;;15.40;93.00;;;;;;4913602;29;20612;-66
2022/08/25 07:35:14;;;;;;;2.53;1.33;;;15.40;93.10;;;;;;4898398;29;20478;-71
2022/08/25 07:36:30;;;;;;;7.07;3.70;;;15.30;93.40;;;;;;4898326;29;20045;-67
2022/08/25 07:39:04;;;;;;;3.72;1.85;;;15.30;93.60;;;;;;4898648;29;20036;-66
2022/08/25 07:41:35;;;;;;;2.90;1.40;;;15.20;93.70;;;;;;4898481;29;20024;-68
2022/08/25 07:44:03;;;;;;;4.32;1.52;;;15.10;93.90;;;;;;4898876;29;20021;-73
2022/08/25 07:46:31;;;;;;;2.60;1.33;;;15.00;94.20;;;;;;4899074;29;20031;-66
2022/08/25 07:48:58;;;;;;;4.97;1.40;;;14.90;94.30;;;;;;4898882;29;20029;-66
2022/08/25 07:51:26;;;;;;;5.05;1.52;;;14.90;94.80;;;;;;4898528;29;20071;-65
2022/08/25 07:53:53;;;;;;;6.65;1.50;;;14.80;94.90;;;;;;4898669;29;20033;-64
2022/08/25 07:56:21;;;;;;;4.35;1.40;;;14.70;95.20;;;;;;4898398;29;20033;-65
2022/08/25 07:58:48;;;;;;;4.57;1.65;;;14.60;95.40;;;;;;4898529;29;20123;-66
2022/08/25 08:01:17;;;;;;;2.97;1.60;;;14.50;95.50;;;;;;4898650;29;20413;-70
2022/08/25 08:03:48;;;;;;;5.47;1.90;;;14.50;95.80;;;;;;4898460;29;20501;-67
2022/08/25 08:06:17;;;;;;;4.70;2.25;;;14.40;96.00;;;;;;4898279;29;20068;-67
2022/08/25 08:08:48;;;;;;;5.05;2.35;;;14.30;96.30;;;;;;4898810;29;20020;-66
2022/08/25 08:11:28;;;;;;;5.78;2.67;;;14.20;96.50;;;;;;4898925;29;20036;-68
2022/08/25 08:13:57;;;;;;;9.13;2.63;;;14.10;96.70;;;;;;4898598;29;20059;-72
2022/08/25 08:16:28;;;;;;;7.60;3.15;;;13.90;97.00;;;;;;4898435;29;20485;-67
2022/08/25 08:18:56;;;;;;;6.85;3.00;;;13.90;97.30;;;;;;4897860;29;20057;-64
2022/08/25 08:21:27;;;;;;;7.93;3.08;;;13.90;97.50;;;;;;4897818;29;20168;-70
2022/08/25 08:23:56;;;;;;;7.18;2.40;;;13.80;97.70;;;;;;4897739;29;20020;-68
2022/08/25 08:26:23;;;;;;;7.72;2.78;;;13.80;97.90;;;;;;4897946;29;20505;-64
2022/08/25 08:28:51;;;;;;;10.27;2.83;;;13.70;98.10;;;;;;4898239;29;20156;-65
2022/08/25 08:31:21;;;;;;;8.45;2.50;;;13.60;98.40;;;;;;4898438;29;20024;-64
2022/08/25 08:33:50;;;;;;;8.68;3.42;;;13.60;98.50;;;;;;4897846;29;20024;-69
2022/08/25 08:36:18;;;;;;;5.95;3.28;;;13.50;98.70;;;;;;4897637;29;20650;-64
2022/08/25 08:38:46;;;;;;;7.85;3.50;;;13.50;98.90;;;;;;4896633;29;20095;-69
2022/08/25 08:44:35;;;;;;;7.10;3.60;;;13.40;99.20;;;;;;4897627;29;20120;-68
2022/08/25 08:47:27;;;;;;;8.63;4.28;;;13.40;99.50;;;;;;4897629;29;20357;-67
2022/08/25 08:50:18;;;;;;;6.18;4.57;;;13.30;99.60;;;;;;4898071;29;20076;-72
2022/08/25 08:53:14;;;;;;;7.68;4.45;;;13.20;99.70;;;;;;4898070;29;20036;-66
2022/08/25 08:56:04;;;;;;;7.22;4.35;;;13.20;99.90;;;;;;4907563;29;20446;-66
2022/08/25 08:58:43;;;;;;;7.60;4.07;;;13.10;99.90;;;;;;4895779;29;20096;-68
2022/08/25 09:01:18;;;;;;;8.50;4.13;;;13.20;99.90;;;;;;4895828;29;20032;-65
2022/08/25 09:03:53;;;;;;;5.90;4.03;;;13.20;99.90;;;;;;4896971;29;20533;-65
2022/08/25 09:06:44;;;;;;;10.35;4.35;;;13.10;99.90;;;;;;4897195;29;20500;-64
2022/08/25 09:09:35;;;;;;;9.10;4.47;;;13.10;99.90;;;;;;4897408;29;20056;-69
2022/08/25 09:12:33;;;;;;;6.70;4.03;;;13.10;99.90;;;;;;4897118;29;20035;-68
2022/08/25 09:15:23;;;;;;;10.63;5.28;;;13.10;99.90;;;;;;4896939;29;20032;-71
2022/08/25 09:18:05;;;;;;;9.35;4.63;;;13.10;99.90;;;;;;4897137;29;20470;-65
2022/08/25 09:20:43;;;;;;;10.32;5.75;;;13.00;99.90;;;;;;4897263;29;20394;-66
2022/08/25 09:23:27;;;;;;;8.10;4.88;;;13.10;99.90;;;;;;4878475;29;20089;-67
2022/08/25 09:26:18;;;;;;;9.30;5.00;;;13.10;99.90;;;;;;4895560;29;20020;-66
2022/08/25 09:29:11;;;;;;;7.32;4.30;;;13.20;99.90;;;;;;4896223;29;20047;-67
2022/08/25 09:31:41;;;;;;;9.87;4.77;;;13.20;99.90;;;;;;4896618;29;20020;-72
2022/08/25 09:34:23;;;;;;;9.75;4.22;;;13.20;99.90;;;;;;4895821;29;20271;-70
2022/08/25 09:36:51;;;;;;;;;;;13.20;99.90;;;;;;4896566;29;20056;-68
2022/08/25 09:39:20;;;;;;;7.50;4.28;;;13.30;99.90;;;;;;4896298;29;19969;-69
2022/08/25 09:41:59;;;;;;;7.10;4.38;;;13.30;99.90;;;;;;4896296;29;20561;-69
2022/08/25 09:44:44;;;;;;;8.43;4.97;;;13.30;99.90;;;;;;4889975;29;20028;-67
2022/08/25 09:47:27;;;;;;;10.65;5.80;;;13.30;99.90;;;;;;4897150;29;20053;-65
2022/08/25 09:50:01;;;;;;;9.00;4.35;;;13.40;99.90;;;;;;4895366;29;20044;-67
2022/08/25 09:52:32;;;;;;;4.57;2.10;;;13.50;99.90;;;;;;4893639;29;20386;-65
2022/08/25 09:55:08;;;;;;;5.88;2.70;;;13.50;99.90;;;;;;4895325;29;20052;-67
2022/08/25 09:57:51;;;;;;;7.72;3.25;;;13.50;99.90;;;;;;4895281;29;20430;-71
2022/08/25 10:00:30;;;;;;;7.18;3.35;;;13.50;99.90;;;;;;4908666;29;20032;-66
2022/08/25 10:03:20;;;;;;;8.57;3.42;;;13.50;99.90;;;;;;4894308;29;20024;-68
2022/08/25 10:05:47;;;;;;;7.70;3.97;;;13.40;99.90;;;;;;4894784;29;20829;-67
2022/08/25 10:08:31;;;;;;;5.68;2.17;;;13.40;99.90;;;;;;4894518;29;20107;-68
2022/08/25 10:11:00;;;;;;;5.47;2.55;;;13.40;99.90;;;;;;4894559;29;20024;-69
2022/08/25 10:13:38;;;;;;;5.45;2.78;;;13.40;99.90;;;;;;4895536;29;20028;-66
2022/08/25 10:16:06;;;;;;;5.30;2.30;;;13.30;99.90;;;;;;4895340;29;20476;-68
2022/08/25 10:18:34;;;;;;;5.72;2.53;;;13.30;99.90;;;;;;4895860;29;20041;-68
2022/08/25 10:21:11;;;;;;;11.07;3.28;;;13.20;99.90;;;;;;4895731;29;20029;-69
2022/08/25 10:23:54;;;;;;;5.68;2.88;;;13.20;99.90;;;;;;4894033;29;20035;-68
2022/08/25 10:26:33;;;;;;;6.93;4.13;;;13.10;99.90;;;;;;4894826;29;20108;-67
2022/08/25 10:29:04;;;;;;;6.45;3.47;;;13.00;99.90;;;;;;4894698;29;20154;-72
2022/08/25 10:31:55;;;;;;;9.23;4.13;;;13.00;99.90;;;;;;4894026;29;20473;-67
2022/08/25 10:34:39;;;;;;;7.22;3.65;;;12.90;99.90;;;;;;4896233;29;20024;-67
2022/08/25 10:37:46;;;;;;;7.78;4.30;;;12.90;99.90;;;;;;4896262;29;20044;-67
2022/08/25 10:40:26;;;;;;;8.27;4.40;;;12.90;99.90;;;;;;4896103;29;20056;-67
2022/08/25 10:43:06;;;;;;;8.27;4.53;;;12.90;99.90;;;;;;4899702;29;20112;-67
2022/08/25 10:45:43;;;;;;;9.10;4.35;;;12.90;99.90;;;;;;4899583;29;20032;-67
2022/08/25 10:48:30;;;;;;;7.13;5.00;;;12.90;99.90;;;;;;4899961;29;20032;-68
2022/08/25 10:51:15;;;;;;;8.52;5.38;;;12.90;99.90;;;;;;4898344;29;20090;-74
2022/08/25 10:54:07;;;;;;;7.40;5.28;;;12.80;99.90;;;;;;4898338;29;20036;-67
2022/08/25 10:57:01;;;;;;;8.48;4.80;;;12.90;99.90;;;;;;4899711;29;20036;-68
2022/08/25 10:59:51;;;;;;;9.10;5.80;;;12.80;99.90;;;;;;4898855;29;20107;-67
2022/08/25 11:02:37;;;;;;;13.80;6.80;;;12.90;99.90;;;;;;4899401;29;20032;-70
2022/08/25 11:05:20;;;;;;;16.02;10.18;;;12.90;99.90;;;;;;4898827;29;20047;-72
2022/08/25 11:07:52;;;;;;;16.73;11.48;;;12.90;99.90;;;;;;4899233;29;20028;-72
2022/08/25 11:10:38;;;;;;;14.73;10.32;;;12.90;99.90;;;;;;4899267;29;20029;-68
2022/08/25 11:13:40;;;;;;;13.52;9.60;;;12.90;99.90;;;;;;4898935;29;20393;-67
2022/08/25 11:16:17;;;;;;;14.10;7.07;;;12.80;99.90;;;;;;4876453;29;20036;-73
2022/08/25 11:18:55;;;;;;;9.82;6.55;;;12.80;99.90;;;;;;4899011;29;20055;-66
2022/08/25 11:21:49;;;;;;;9.15;5.40;;;12.80;99.90;;;;;;4899434;29;20037;-69
2022/08/25 11:24:36;;;;;;;13.32;6.68;;;12.70;99.90;;;;;;4899065;29;20112;-68
2022/08/25 11:27:08;;;;;;;9.73;5.85;;;12.70;99.90;;;;;;4899399;29;20037;-67
2022/08/25 11:29:38;;;;;;;8.98;4.63;;;12.80;99.90;;;;;;4898937;29;20068;-67
2022/08/25 11:32:06;;;;;;;10.30;5.97;;;12.70;99.90;;;;;;4899156;29;20016;-66
2022/08/25 11:34:36;;;;;;;12.15;5.53;;;12.70;99.90;;;;;;4898874;29;20029;-66
2022/08/25 11:37:13;;;;;;;10.45;5.03;;;12.70;99.90;;;;;;4899199;29;20057;-64
2022/08/25 11:39:52;;;;;;;8.52;4.78;;;12.70;99.90;;;;;;4898446;29;20394;-70
2022/08/25 11:42:31;;;;;;;11.55;5.75;;;12.70;99.90;;;;;;4899031;29;20037;-66
2022/08/25 11:45:26;;;;;;;8.50;4.82;;;12.70;99.90;;;;;;4898418;29;20024;-65
2022/08/25 11:48:12;;;;;;;11.50;5.30;;;12.70;99.90;;;;;;4898770;29;20029;-66
2022/08/25 11:51:04;;;;;;;9.55;4.95;;;12.70;99.90;;;;;;4898979;29;20025;-65
2022/08/25 11:53:34;;;;;;;10.02;6.10;;;12.70;99.90;;;;;;4879600;29;20089;-68
2022/08/25 11:56:07;;;;;;;9.25;6.10;;;12.70;99.90;;;;;;4897641;29;20390;-65
2022/08/25 11:58:35;;;;;;;9.25;5.15;;;12.80;99.90;;;;;;4898517;29;20044;-65
2022/08/25 12:01:04;;;;;;;10.52;6.05;;;12.80;99.90;;;;;;4898289;29;20032;-65
2022/08/25 12:03:35;;;;;;;9.27;5.57;;;12.80;99.90;;;;;;4897852;29;20119;-66
2022/08/25 12:06:26;;;;;;;9.23;5.20;;;12.80;99.90;;;;;;4897914;29;20029;-65
2022/08/25 12:09:03;;;;;;;10.15;5.82;;;12.80;99.90;;;;;;4898636;29;20024;-65
2022/08/25 12:11:44;;;;;;;6.32;4.50;;;12.70;99.90;;;;;;4898186;29;20481;-65
2022/08/25 12:14:17;;;;;;;11.10;5.82;;;12.70;99.90;;;;;;4898126;29;20079;-65
2022/08/25 12:17:05;;;;;;;9.52;5.05;;;12.80;99.90;;;;;;4896783;29;20041;-67
2022/08/25 12:19:35;;;;;;;11.13;5.32;;;12.80;99.90;;;;;;4895428;29;20032;-66
2022/08/25 12:22:02;;;;;;;9.63;4.93;;;12.80;99.90;;;;;;4898163;29;20061;-70
2022/08/25 12:25:04;;;;;;;9.35;4.75;;;12.70;99.90;;;;;;4897835;29;20111;-66
2022/08/25 12:27:49;;;;;;;11.20;5.20;;;12.80;99.90;;;;;;4912783;29;20036;-67
2022/08/25 12:30:28;;;;;;;8.15;4.95;;;12.70;99.90;;;;;;4897986;29;20474;-66
2022/08/25 12:33:04;;;;;;;9.25;4.57;;;12.80;99.90;;;;;;4897387;29;20508;-66
2022/08/25 12:35:36;;;;;;;7.78;4.55;;;12.80;99.90;;;;;;4897380;29;20415;-68
2022/08/25 12:38:24;;;;;;;8.50;4.78;;;12.70;99.90;;;;;;4897623;29;20029;-68
2022/08/25 12:41:01;;;;;;;10.25;5.13;;;12.70;99.90;;;;;;4897141;29;20037;-67
2022/08/25 12:43:32;;;;;;;10.10;4.15;;;12.70;99.90;;;;;;4896968;29;20120;-66
2022/08/25 12:46:18;;;;;;;9.73;4.40;;;12.70;99.90;;;;;;4897691;29;20080;-66
2022/08/25 12:49:00;;;;;;;8.05;3.70;;;12.60;99.90;;;;;;4897793;29;20020;-66
2022/08/25 12:51:27;;;;;;;9.35;3.70;;;12.50;99.90;;;;;;4897851;29;20399;-67
2022/08/25 12:54:35;;;;;;;9.52;4.30;;;12.50;99.90;;;;;;4897518;29;20029;-65
2022/08/25 12:57:46;;;;;;;9.32;4.53;;;12.50;99.90;;;;;;4890642;29;20104;-67
2022/08/25 13:00:45;;;;;;;8.82;4.60;;;12.50;99.90;;;;;;4866395;29;20049;-65
2022/08/25 13:03:41;;;;;;;7.30;3.78;;;12.50;99.90;;;;;;4896846;29;20034;-74
2022/08/25 13:06:20;;;;;;;6.90;3.42;;;12.40;99.90;;;;;;4896226;29;20043;-67
2022/08/25 13:08:56;;;;;;;6.05;3.72;;;12.40;99.90;;;;;;4896958;29;20036;-66
2022/08/25 13:11:51;;;;;;;6.07;3.63;;;12.30;99.90;;;;;;4897303;29;20155;-67
2022/08/25 13:14:33;;;;;;;6.25;3.13;;;12.30;99.90;;;;;;4897141;29;20024;-67
2022/08/25 13:17:01;;;;;;;7.25;3.60;;;12.30;99.90;;;;;;4896934;29;20027;-65
2022/08/25 13:19:29;;;;;;;8.15;3.63;;;12.30;99.90;;;;;;4896173;29;20100;-71
2022/08/25 13:22:00;;;;;;;6.60;3.50;;;12.30;99.90;;;;;;4896994;29;20037;-67
2022/08/25 13:24:39;;;;;;;6.53;4.38;;;12.30;99.90;;;;;;4897188;29;20024;-65
2022/08/25 13:27:17;;;;;;;6.63;2.90;;;12.40;99.90;;;;;;4897055;29;20390;-69
2022/08/25 13:30:18;;;;;;;6.70;3.78;;;12.40;99.90;;;;;;4896798;29;20107;-65
2022/08/25 13:32:46;;;;;;;7.13;3.33;;;12.40;99.90;;;;;;4896220;29;20119;-65